sensor_id;sensor_type;location;lat;lon;timestamp;P1;durP1;ratioP1;P2;durP2;ratioP2
32946;SDS011;54465;51.230;22.504;2022-09-09T00:04:59;8.55;;;5.05;;
32946;SDS011;54465;51.230;22.504;2022-09-09T00:08:15;9.02;;;4.95;;
32946;SDS011;54465;51.230;22.504;2022-09-09T00:11:24;6.28;;;4.30;;
32946;SDS011;54465;51.230;22.504;2022-09-09T00:17:41;5.93;;;4.53;;
32946;SDS011;54465;51.230;22.504;2022-09-09T00:20:52;6.13;;;4.70;;
32946;SDS011;54465;51.230;22.504;2022-09-09T00:23:59;9.85;;;5.05;;
32946;SDS011;54465;51.230;22.504;2022-09-09T00:27:13;7.30;;;4.40;;
32946;SDS011;54465;51.230;22.504;2022-09-09T00:30:22;6.40;;;3.80;;
32946;SDS011;54465;51.230;22.504;2022-09-09T00:33:31;8.65;;;4.70;;
32946;SDS011;54465;51.230;22.504;2022-09-09T00:36:34;7.82;;;4.65;;
32946;SDS011;54465;51.230;22.504;2022-09-09T00:39:39;5.85;;;4.43;;
32946;SDS011;54465;51.230;22.504;2022-09-09T00:42:44;10.68;;;4.88;;
32946;SDS011;54465;51.230;22.504;2022-09-09T00:45:59;12.60;;;4.72;;
32946;SDS011;54465;51.230;22.504;2022-09-09T00:49:17;5.82;;;4.35;;
32946;SDS011;54465;51.230;22.504;2022-09-09T00:52:32;8.05;;;5.03;;
32946;SDS011;54465;51.230;22.504;2022-09-09T00:55:42;8.63;;;5.00;;
32946;SDS011;54465;51.230;22.504;2022-09-09T00:58:52;7.82;;;4.72;;
32946;SDS011;54465;51.230;22.504;2022-09-09T01:02:02;9.90;;;5.80;;
32946;SDS011;54465;51.230;22.504;2022-09-09T01:05:12;6.57;;;4.32;;
32946;SDS011;54465;51.230;22.504;2022-09-09T01:08:25;10.65;;;5.00;;
32946;SDS011;54465;51.230;22.504;2022-09-09T01:11:43;8.65;;;5.07;;
32946;SDS011;54465;51.230;22.504;2022-09-09T01:14:56;7.45;;;5.30;;
32946;SDS011;54465;51.230;22.504;2022-09-09T01:18:05;7.15;;;4.72;;
32946;SDS011;54465;51.230;22.504;2022-09-09T01:21:19;7.63;;;4.70;;
32946;SDS011;54465;51.230;22.504;2022-09-09T01:24:31;6.78;;;4.97;;
32946;SDS011;54465;51.230;22.504;2022-09-09T01:27:54;6.05;;;4.65;;
32946;SDS011;54465;51.230;22.504;2022-09-09T01:30:59;10.13;;;5.45;;
32946;SDS011;54465;51.230;22.504;2022-09-09T01:34:10;8.77;;;5.07;;
32946;SDS011;54465;51.230;22.504;2022-09-09T01:37:14;7.85;;;5.50;;
32946;SDS011;54465;51.230;22.504;2022-09-09T01:40:18;8.32;;;5.00;;
32946;SDS011;54465;51.230;22.504;2022-09-09T01:43:24;7.75;;;4.75;;
32946;SDS011;54465;51.230;22.504;2022-09-09T01:46:27;5.40;;;4.57;;
32946;SDS011;54465;51.230;22.504;2022-09-09T01:49:32;7.70;;;5.00;;
32946;SDS011;54465;51.230;22.504;2022-09-09T01:52:41;7.15;;;4.97;;
32946;SDS011;54465;51.230;22.504;2022-09-09T01:55:48;6.88;;;4.75;;
32946;SDS011;54465;51.230;22.504;2022-09-09T02:02:32;9.18;;;5.07;;
32946;SDS011;54465;51.230;22.504;2022-09-09T02:05:45;7.40;;;5.22;;
32946;SDS011;54465;51.230;22.504;2022-09-09T02:09:00;8.30;;;5.10;;
32946;SDS011;54465;51.230;22.504;2022-09-09T02:12:08;9.60;;;5.53;;
32946;SDS011;54465;51.230;22.504;2022-09-09T02:15:23;8.38;;;5.75;;
32946;SDS011;54465;51.230;22.504;2022-09-09T02:18:32;9.93;;;5.47;;
32946;SDS011;54465;51.230;22.504;2022-09-09T02:21:41;8.57;;;5.22;;
32946;SDS011;54465;51.230;22.504;2022-09-09T02:24:49;7.90;;;5.45;;
32946;SDS011;54465;51.230;22.504;2022-09-09T02:27:59;9.10;;;5.45;;
32946;SDS011;54465;51.230;22.504;2022-09-09T02:31:05;9.15;;;5.72;;
32946;SDS011;54465;51.230;22.504;2022-09-09T02:34:12;7.20;;;5.07;;
32946;SDS011;54465;51.230;22.504;2022-09-09T02:37:17;9.30;;;5.93;;
32946;SDS011;54465;51.230;22.504;2022-09-09T02:40:26;7.93;;;5.68;;
32946;SDS011;54465;51.230;22.504;2022-09-09T02:43:34;8.20;;;4.93;;
32946;SDS011;54465;51.230;22.504;2022-09-09T02:46:47;8.00;;;5.85;;
32946;SDS011;54465;51.230;22.504;2022-09-09T02:50:15;8.27;;;5.60;;
32946;SDS011;54465;51.230;22.504;2022-09-09T02:56:27;7.72;;;5.35;;
32946;SDS011;54465;51.230;22.504;2022-09-09T02:59:35;11.82;;;6.07;;
32946;SDS011;54465;51.230;22.504;2022-09-09T03:02:39;6.88;;;5.05;;
32946;SDS011;54465;51.230;22.504;2022-09-09T03:05:43;8.65;;;5.25;;
32946;SDS011;54465;51.230;22.504;2022-09-09T03:08:52;11.32;;;5.88;;
32946;SDS011;54465;51.230;22.504;2022-09-09T03:11:59;8.95;;;5.70;;
32946;SDS011;54465;51.230;22.504;2022-09-09T03:15:08;11.35;;;5.68;;
32946;SDS011;54465;51.230;22.504;2022-09-09T03:18:17;8.93;;;6.03;;
32946;SDS011;54465;51.230;22.504;2022-09-09T03:21:23;7.55;;;6.00;;
32946;SDS011;54465;51.230;22.504;2022-09-09T03:24:26;8.52;;;5.25;;
32946;SDS011;54465;51.230;22.504;2022-09-09T03:27:29;9.45;;;5.97;;
32946;SDS011;54465;51.230;22.504;2022-09-09T03:30:32;10.80;;;6.40;;
32946;SDS011;54465;51.230;22.504;2022-09-09T03:33:37;7.72;;;5.03;;
32946;SDS011;54465;51.230;22.504;2022-09-09T03:36:41;11.35;;;5.88;;
32946;SDS011;54465;51.230;22.504;2022-09-09T03:39:44;9.75;;;5.70;;
32946;SDS011;54465;51.230;22.504;2022-09-09T03:55:56;8.32;;;5.15;;
32946;SDS011;54465;51.230;22.504;2022-09-09T03:59:01;9.02;;;6.32;;
32946;SDS011;54465;51.230;22.504;2022-09-09T04:02:04;8.02;;;6.15;;
32946;SDS011;54465;51.230;22.504;2022-09-09T04:05:15;8.00;;;5.60;;
32946;SDS011;54465;51.230;22.504;2022-09-09T04:08:20;9.93;;;5.40;;
32946;SDS011;54465;51.230;22.504;2022-09-09T04:11:31;9.85;;;5.88;;
32946;SDS011;54465;51.230;22.504;2022-09-09T04:14:36;10.27;;;6.28;;
32946;SDS011;54465;51.230;22.504;2022-09-09T04:17:46;9.80;;;6.00;;
32946;SDS011;54465;51.230;22.504;2022-09-09T04:20:49;7.32;;;6.10;;
32946;SDS011;54465;51.230;22.504;2022-09-09T04:23:56;8.05;;;5.95;;
32946;SDS011;54465;51.230;22.504;2022-09-09T04:27:04;7.80;;;5.65;;
32946;SDS011;54465;51.230;22.504;2022-09-09T04:30:10;9.15;;;5.68;;
32946;SDS011;54465;51.230;22.504;2022-09-09T04:33:16;10.48;;;7.40;;
32946;SDS011;54465;51.230;22.504;2022-09-09T04:36:19;11.32;;;6.00;;
32946;SDS011;54465;51.230;22.504;2022-09-09T04:39:23;6.82;;;5.72;;
32946;SDS011;54465;51.230;22.504;2022-09-09T04:42:28;10.20;;;7.00;;
32946;SDS011;54465;51.230;22.504;2022-09-09T04:45:31;9.75;;;6.40;;
32946;SDS011;54465;51.230;22.504;2022-09-09T04:48:34;10.52;;;6.50;;
32946;SDS011;54465;51.230;22.504;2022-09-09T04:51:38;10.68;;;6.30;;
32946;SDS011;54465;51.230;22.504;2022-09-09T04:54:41;8.00;;;5.97;;
32946;SDS011;54465;51.230;22.504;2022-09-09T04:57:45;8.10;;;5.80;;
32946;SDS011;54465;51.230;22.504;2022-09-09T05:00:48;7.15;;;5.32;;
32946;SDS011;54465;51.230;22.504;2022-09-09T05:03:52;12.10;;;5.82;;
32946;SDS011;54465;51.230;22.504;2022-09-09T05:06:57;8.20;;;5.57;;
32946;SDS011;54465;51.230;22.504;2022-09-09T05:09:59;9.32;;;5.68;;
32946;SDS011;54465;51.230;22.504;2022-09-09T05:13:05;8.07;;;6.07;;
32946;SDS011;54465;51.230;22.504;2022-09-09T05:16:08;8.02;;;5.90;;
32946;SDS011;54465;51.230;22.504;2022-09-09T05:19:12;8.57;;;5.72;;
32946;SDS011;54465;51.230;22.504;2022-09-09T05:22:19;6.40;;;5.55;;
32946;SDS011;54465;51.230;22.504;2022-09-09T05:25:24;8.65;;;5.45;;
32946;SDS011;54465;51.230;22.504;2022-09-09T05:28:30;8.98;;;5.90;;
32946;SDS011;54465;51.230;22.504;2022-09-09T05:31:36;8.23;;;5.55;;
32946;SDS011;54465;51.230;22.504;2022-09-09T05:34:43;11.27;;;5.77;;
32946;SDS011;54465;51.230;22.504;2022-09-09T05:37:47;9.65;;;6.45;;
32946;SDS011;54465;51.230;22.504;2022-09-09T05:40:49;8.30;;;5.60;;
32946;SDS011;54465;51.230;22.504;2022-09-09T05:43:54;7.97;;;6.05;;
32946;SDS011;54465;51.230;22.504;2022-09-09T05:46:57;14.05;;;6.15;;
32946;SDS011;54465;51.230;22.504;2022-09-09T05:49:59;13.07;;;6.28;;
32946;SDS011;54465;51.230;22.504;2022-09-09T05:53:01;7.43;;;5.75;;
32946;SDS011;54465;51.230;22.504;2022-09-09T05:56:06;8.30;;;5.68;;
32946;SDS011;54465;51.230;22.504;2022-09-09T05:59:12;7.05;;;5.63;;
32946;SDS011;54465;51.230;22.504;2022-09-09T06:02:15;8.95;;;5.68;;
32946;SDS011;54465;51.230;22.504;2022-09-09T06:05:18;8.82;;;6.00;;
32946;SDS011;54465;51.230;22.504;2022-09-09T06:08:25;8.68;;;5.78;;
32946;SDS011;54465;51.230;22.504;2022-09-09T06:11:30;9.18;;;5.78;;
32946;SDS011;54465;51.230;22.504;2022-09-09T06:14:35;8.10;;;6.28;;
32946;SDS011;54465;51.230;22.504;2022-09-09T06:17:38;9.13;;;5.40;;
32946;SDS011;54465;51.230;22.504;2022-09-09T06:20:41;8.35;;;5.45;;
32946;SDS011;54465;51.230;22.504;2022-09-09T06:23:43;6.35;;;5.13;;
32946;SDS011;54465;51.230;22.504;2022-09-09T06:26:49;5.47;;;4.35;;
32946;SDS011;54465;51.230;22.504;2022-09-09T06:29:57;7.30;;;4.68;;
32946;SDS011;54465;51.230;22.504;2022-09-09T06:32:59;6.93;;;5.25;;
32946;SDS011;54465;51.230;22.504;2022-09-09T06:36:05;6.70;;;5.22;;
32946;SDS011;54465;51.230;22.504;2022-09-09T06:39:08;8.00;;;4.70;;
32946;SDS011;54465;51.230;22.504;2022-09-09T06:42:13;7.85;;;5.40;;
32946;SDS011;54465;51.230;22.504;2022-09-09T06:45:58;7.53;;;5.57;;
32946;SDS011;54465;51.230;22.504;2022-09-09T06:49:02;7.35;;;5.10;;
32946;SDS011;54465;51.230;22.504;2022-09-09T06:52:05;8.65;;;5.63;;
32946;SDS011;54465;51.230;22.504;2022-09-09T06:55:10;10.25;;;6.28;;
32946;SDS011;54465;51.230;22.504;2022-09-09T06:58:14;8.80;;;5.93;;
32946;SDS011;54465;51.230;22.504;2022-09-09T07:01:18;9.40;;;6.07;;
32946;SDS011;54465;51.230;22.504;2022-09-09T07:04:21;8.77;;;6.43;;
32946;SDS011;54465;51.230;22.504;2022-09-09T07:07:23;7.78;;;5.68;;
32946;SDS011;54465;51.230;22.504;2022-09-09T07:10:28;8.13;;;5.68;;
32946;SDS011;54465;51.230;22.504;2022-09-09T07:13:30;8.48;;;6.35;;
32946;SDS011;54465;51.230;22.504;2022-09-09T07:16:36;9.48;;;5.75;;
32946;SDS011;54465;51.230;22.504;2022-09-09T07:19:39;9.68;;;6.00;;
32946;SDS011;54465;51.230;22.504;2022-09-09T07:22:44;9.77;;;5.78;;
32946;SDS011;54465;51.230;22.504;2022-09-09T07:25:47;7.32;;;5.40;;
32946;SDS011;54465;51.230;22.504;2022-09-09T07:28:51;7.38;;;5.78;;
32946;SDS011;54465;51.230;22.504;2022-09-09T07:31:56;8.55;;;5.35;;
32946;SDS011;54465;51.230;22.504;2022-09-09T07:35:05;9.65;;;7.00;;
32946;SDS011;54465;51.230;22.504;2022-09-09T07:38:10;8.88;;;5.40;;
32946;SDS011;54465;51.230;22.504;2022-09-09T07:41:18;9.95;;;6.38;;
32946;SDS011;54465;51.230;22.504;2022-09-09T07:44:24;10.48;;;6.55;;
32946;SDS011;54465;51.230;22.504;2022-09-09T07:47:35;9.32;;;6.03;;
32946;SDS011;54465;51.230;22.504;2022-09-09T07:50:38;9.73;;;6.07;;
32946;SDS011;54465;51.230;22.504;2022-09-09T07:53:41;10.57;;;6.75;;
32946;SDS011;54465;51.230;22.504;2022-09-09T07:56:44;10.75;;;7.00;;
32946;SDS011;54465;51.230;22.504;2022-09-09T07:59:47;10.30;;;7.00;;
32946;SDS011;54465;51.230;22.504;2022-09-09T08:02:51;7.47;;;6.28;;
32946;SDS011;54465;51.230;22.504;2022-09-09T08:05:59;9.43;;;7.35;;
32946;SDS011;54465;51.230;22.504;2022-09-09T08:12:06;12.10;;;7.32;;
32946;SDS011;54465;51.230;22.504;2022-09-09T08:15:10;12.15;;;7.90;;
32946;SDS011;54465;51.230;22.504;2022-09-09T08:18:16;11.85;;;7.10;;
32946;SDS011;54465;51.230;22.504;2022-09-09T08:21:20;12.50;;;8.07;;
32946;SDS011;54465;51.230;22.504;2022-09-09T08:24:27;13.73;;;7.53;;
32946;SDS011;54465;51.230;22.504;2022-09-09T08:27:31;13.85;;;8.35;;
32946;SDS011;54465;51.230;22.504;2022-09-09T08:30:35;9.88;;;7.07;;
32946;SDS011;54465;51.230;22.504;2022-09-09T08:33:43;13.77;;;7.60;;
32946;SDS011;54465;51.230;22.504;2022-09-09T08:36:47;12.32;;;8.38;;
32946;SDS011;54465;51.230;22.504;2022-09-09T08:39:50;12.55;;;8.90;;
32946;SDS011;54465;51.230;22.504;2022-09-09T08:42:54;12.48;;;8.20;;
32946;SDS011;54465;51.230;22.504;2022-09-09T08:46:04;11.85;;;7.43;;
32946;SDS011;54465;51.230;22.504;2022-09-09T08:49:29;16.15;;;8.80;;
32946;SDS011;54465;51.230;22.504;2022-09-09T08:52:55;10.65;;;8.25;;
32946;SDS011;54465;51.230;22.504;2022-09-09T08:56:07;12.93;;;8.05;;
32946;SDS011;54465;51.230;22.504;2022-09-09T08:59:19;13.10;;;9.20;;
32946;SDS011;54465;51.230;22.504;2022-09-09T09:02:25;15.40;;;8.52;;
32946;SDS011;54465;51.230;22.504;2022-09-09T09:05:40;13.27;;;8.98;;
32946;SDS011;54465;51.230;22.504;2022-09-09T09:08:50;11.65;;;8.80;;
32946;SDS011;54465;51.230;22.504;2022-09-09T09:12:06;13.07;;;9.10;;
32946;SDS011;54465;51.230;22.504;2022-09-09T09:15:18;14.73;;;9.27;;
32946;SDS011;54465;51.230;22.504;2022-09-09T09:18:26;15.32;;;9.15;;
32946;SDS011;54465;51.230;22.504;2022-09-09T09:21:34;11.07;;;8.60;;
32946;SDS011;54465;51.230;22.504;2022-09-09T09:24:42;15.55;;;9.02;;
32946;SDS011;54465;51.230;22.504;2022-09-09T09:27:57;16.75;;;9.98;;
32946;SDS011;54465;51.230;22.504;2022-09-09T09:31:04;18.20;;;10.13;;
32946;SDS011;54465;51.230;22.504;2022-09-09T09:34:10;15.15;;;9.95;;
32946;SDS011;54465;51.230;22.504;2022-09-09T09:37:16;15.60;;;9.85;;
32946;SDS011;54465;51.230;22.504;2022-09-09T09:40:24;13.38;;;8.88;;
32946;SDS011;54465;51.230;22.504;2022-09-09T09:43:27;17.08;;;9.45;;
32946;SDS011;54465;51.230;22.504;2022-09-09T09:46:32;12.02;;;9.77;;
32946;SDS011;54465;51.230;22.504;2022-09-09T09:49:50;15.73;;;9.63;;
32946;SDS011;54465;51.230;22.504;2022-09-09T09:52:56;13.23;;;9.45;;
32946;SDS011;54465;51.230;22.504;2022-09-09T09:56:02;15.00;;;10.68;;
32946;SDS011;54465;51.230;22.504;2022-09-09T09:59:17;17.13;;;9.82;;
32946;SDS011;54465;51.230;22.504;2022-09-09T10:02:25;16.05;;;10.68;;
32946;SDS011;54465;51.230;22.504;2022-09-09T10:05:45;19.73;;;11.55;;
32946;SDS011;54465;51.230;22.504;2022-09-09T10:08:55;15.68;;;10.63;;
32946;SDS011;54465;51.230;22.504;2022-09-09T10:11:59;16.50;;;10.83;;
32946;SDS011;54465;51.230;22.504;2022-09-09T10:15:09;15.90;;;11.13;;
32946;SDS011;54465;51.230;22.504;2022-09-09T10:18:34;18.77;;;11.30;;
32946;SDS011;54465;51.230;22.504;2022-09-09T10:21:56;16.60;;;11.68;;
32946;SDS011;54465;51.230;22.504;2022-09-09T10:25:17;21.17;;;11.63;;
32946;SDS011;54465;51.230;22.504;2022-09-09T10:28:34;13.13;;;10.38;;
32946;SDS011;54465;51.230;22.504;2022-09-09T10:31:53;16.80;;;10.93;;
32946;SDS011;54465;51.230;22.504;2022-09-09T10:35:04;13.50;;;11.00;;
32946;SDS011;54465;51.230;22.504;2022-09-09T10:38:13;20.20;;;10.80;;
32946;SDS011;54465;51.230;22.504;2022-09-09T10:41:26;17.23;;;10.00;;
32946;SDS011;54465;51.230;22.504;2022-09-09T10:44:53;15.85;;;10.65;;
32946;SDS011;54465;51.230;22.504;2022-09-09T10:48:08;16.27;;;10.80;;
32946;SDS011;54465;51.230;22.504;2022-09-09T10:51:21;13.60;;;10.20;;
32946;SDS011;54465;51.230;22.504;2022-09-09T10:54:34;17.50;;;10.52;;
32946;SDS011;54465;51.230;22.504;2022-09-09T10:57:46;18.38;;;10.77;;
32946;SDS011;54465;51.230;22.504;2022-09-09T11:00:53;22.33;;;10.95;;
32946;SDS011;54465;51.230;22.504;2022-09-09T11:04:01;17.90;;;10.68;;
32946;SDS011;54465;51.230;22.504;2022-09-09T11:07:07;17.98;;;10.48;;
32946;SDS011;54465;51.230;22.504;2022-09-09T11:10:16;20.13;;;11.63;;
32946;SDS011;54465;51.230;22.504;2022-09-09T11:13:26;15.75;;;10.82;;
32946;SDS011;54465;51.230;22.504;2022-09-09T11:16:38;17.55;;;11.15;;
32946;SDS011;54465;51.230;22.504;2022-09-09T11:19:43;17.00;;;11.07;;
32946;SDS011;54465;51.230;22.504;2022-09-09T11:22:47;15.95;;;10.90;;
32946;SDS011;54465;51.230;22.504;2022-09-09T11:25:53;18.23;;;12.02;;
32946;SDS011;54465;51.230;22.504;2022-09-09T11:29:05;20.48;;;11.20;;
32946;SDS011;54465;51.230;22.504;2022-09-09T11:32:27;15.85;;;10.68;;
32946;SDS011;54465;51.230;22.504;2022-09-09T11:35:47;21.40;;;12.07;;
32946;SDS011;54465;51.230;22.504;2022-09-09T11:38:59;15.23;;;10.77;;
32946;SDS011;54465;51.230;22.504;2022-09-09T11:42:15;19.63;;;11.07;;
32946;SDS011;54465;51.230;22.504;2022-09-09T11:48:27;18.15;;;11.02;;
32946;SDS011;54465;51.230;22.504;2022-09-09T11:51:33;15.02;;;11.07;;
32946;SDS011;54465;51.230;22.504;2022-09-09T11:54:44;15.85;;;11.48;;
32946;SDS011;54465;51.230;22.504;2022-09-09T11:57:56;15.75;;;11.27;;
32946;SDS011;54465;51.230;22.504;2022-09-09T12:01:02;18.33;;;12.20;;
32946;SDS011;54465;51.230;22.504;2022-09-09T12:04:26;17.15;;;10.98;;
32946;SDS011;54465;51.230;22.504;2022-09-09T12:07:35;17.42;;;10.73;;
32946;SDS011;54465;51.230;22.504;2022-09-09T12:10:40;16.13;;;10.75;;
32946;SDS011;54465;51.230;22.504;2022-09-09T12:13:51;19.98;;;10.98;;
32946;SDS011;54465;51.230;22.504;2022-09-09T12:16:56;18.05;;;11.30;;
32946;SDS011;54465;51.230;22.504;2022-09-09T12:20:12;18.10;;;11.98;;
32946;SDS011;54465;51.230;22.504;2022-09-09T12:23:21;16.35;;;11.73;;
32946;SDS011;54465;51.230;22.504;2022-09-09T12:26:34;16.58;;;11.68;;
32946;SDS011;54465;51.230;22.504;2022-09-09T12:29:42;15.75;;;10.75;;
32946;SDS011;54465;51.230;22.504;2022-09-09T12:33:00;18.35;;;11.45;;
32946;SDS011;54465;51.230;22.504;2022-09-09T12:36:03;17.25;;;11.93;;
32946;SDS011;54465;51.230;22.504;2022-09-09T12:39:12;17.02;;;11.23;;
32946;SDS011;54465;51.230;22.504;2022-09-09T12:42:21;17.10;;;11.52;;
32946;SDS011;54465;51.230;22.504;2022-09-09T12:45:25;17.17;;;12.05;;
32946;SDS011;54465;51.230;22.504;2022-09-09T12:48:33;19.80;;;13.32;;
32946;SDS011;54465;51.230;22.504;2022-09-09T12:51:38;19.33;;;12.40;;
32946;SDS011;54465;51.230;22.504;2022-09-09T12:54:45;19.40;;;12.43;;
32946;SDS011;54465;51.230;22.504;2022-09-09T12:57:51;20.95;;;12.75;;
32946;SDS011;54465;51.230;22.504;2022-09-09T13:00:54;18.13;;;13.00;;
32946;SDS011;54465;51.230;22.504;2022-09-09T13:03:59;18.30;;;12.23;;
32946;SDS011;54465;51.230;22.504;2022-09-09T13:07:05;20.60;;;12.68;;
32946;SDS011;54465;51.230;22.504;2022-09-09T13:10:12;17.70;;;11.52;;
32946;SDS011;54465;51.230;22.504;2022-09-09T13:13:16;18.77;;;12.77;;
32946;SDS011;54465;51.230;22.504;2022-09-09T13:16:22;20.23;;;13.20;;
32946;SDS011;54465;51.230;22.504;2022-09-09T13:19:34;20.48;;;12.57;;
32946;SDS011;54465;51.230;22.504;2022-09-09T13:22:39;18.93;;;13.47;;
32946;SDS011;54465;51.230;22.504;2022-09-09T13:25:41;19.23;;;11.98;;
32946;SDS011;54465;51.230;22.504;2022-09-09T13:29:07;18.90;;;12.40;;
32946;SDS011;54465;51.230;22.504;2022-09-09T13:32:18;17.10;;;11.77;;
32946;SDS011;54465;51.230;22.504;2022-09-09T13:35:23;19.50;;;12.70;;
32946;SDS011;54465;51.230;22.504;2022-09-09T13:38:26;20.10;;;12.02;;
32946;SDS011;54465;51.230;22.504;2022-09-09T13:41:42;20.58;;;13.65;;
32946;SDS011;54465;51.230;22.504;2022-09-09T13:44:45;21.73;;;13.02;;
32946;SDS011;54465;51.230;22.504;2022-09-09T13:47:48;22.45;;;13.43;;
32946;SDS011;54465;51.230;22.504;2022-09-09T13:50:58;21.92;;;12.10;;
32946;SDS011;54465;51.230;22.504;2022-09-09T13:54:02;18.08;;;12.13;;
32946;SDS011;54465;51.230;22.504;2022-09-09T13:57:13;18.25;;;11.68;;
32946;SDS011;54465;51.230;22.504;2022-09-09T14:00:18;17.52;;;12.32;;
32946;SDS011;54465;51.230;22.504;2022-09-09T14:03:20;18.88;;;12.27;;
32946;SDS011;54465;51.230;22.504;2022-09-09T14:06:25;16.83;;;11.73;;
32946;SDS011;54465;51.230;22.504;2022-09-09T14:09:29;17.48;;;11.82;;
32946;SDS011;54465;51.230;22.504;2022-09-09T14:12:32;17.17;;;11.65;;
32946;SDS011;54465;51.230;22.504;2022-09-09T14:15:36;16.45;;;11.30;;
32946;SDS011;54465;51.230;22.504;2022-09-09T14:18:39;16.90;;;12.00;;
32946;SDS011;54465;51.230;22.504;2022-09-09T14:21:43;17.88;;;12.85;;
32946;SDS011;54465;51.230;22.504;2022-09-09T14:24:46;17.77;;;11.82;;
32946;SDS011;54465;51.230;22.504;2022-09-09T14:27:49;17.48;;;11.70;;
32946;SDS011;54465;51.230;22.504;2022-09-09T14:30:52;17.40;;;12.10;;
32946;SDS011;54465;51.230;22.504;2022-09-09T14:33:54;18.05;;;13.00;;
32946;SDS011;54465;51.230;22.504;2022-09-09T14:37:00;18.35;;;12.35;;
32946;SDS011;54465;51.230;22.504;2022-09-09T14:40:03;20.27;;;13.85;;
32946;SDS011;54465;51.230;22.504;2022-09-09T14:43:09;16.45;;;12.02;;
32946;SDS011;54465;51.230;22.504;2022-09-09T14:46:13;18.60;;;12.23;;
32946;SDS011;54465;51.230;22.504;2022-09-09T14:49:16;19.55;;;13.65;;
32946;SDS011;54465;51.230;22.504;2022-09-09T14:52:20;18.90;;;12.88;;
32946;SDS011;54465;51.230;22.504;2022-09-09T14:55:23;20.02;;;12.93;;
32946;SDS011;54465;51.230;22.504;2022-09-09T14:58:32;20.65;;;13.90;;
32946;SDS011;54465;51.230;22.504;2022-09-09T15:01:41;20.17;;;12.18;;
32946;SDS011;54465;51.230;22.504;2022-09-09T15:04:44;15.85;;;12.45;;
32946;SDS011;54465;51.230;22.504;2022-09-09T15:07:50;17.13;;;12.63;;
32946;SDS011;54465;51.230;22.504;2022-09-09T15:10:58;17.40;;;12.38;;
32946;SDS011;54465;51.230;22.504;2022-09-09T15:14:01;16.60;;;12.18;;
32946;SDS011;54465;51.230;22.504;2022-09-09T15:17:06;15.00;;;11.88;;
32946;SDS011;54465;51.230;22.504;2022-09-09T15:20:17;22.88;;;13.75;;
32946;SDS011;54465;51.230;22.504;2022-09-09T15:23:21;18.52;;;12.95;;
32946;SDS011;54465;51.230;22.504;2022-09-09T15:26:24;19.02;;;13.25;;
32946;SDS011;54465;51.230;22.504;2022-09-09T15:29:28;17.30;;;13.23;;
32946;SDS011;54465;51.230;22.504;2022-09-09T15:32:33;21.27;;;12.68;;
32946;SDS011;54465;51.230;22.504;2022-09-09T15:35:40;17.88;;;12.43;;
32946;SDS011;54465;51.230;22.504;2022-09-09T15:38:52;18.40;;;12.80;;
32946;SDS011;54465;51.230;22.504;2022-09-09T15:41:56;17.85;;;12.38;;
32946;SDS011;54465;51.230;22.504;2022-09-09T15:45:03;19.08;;;12.98;;
32946;SDS011;54465;51.230;22.504;2022-09-09T15:48:08;17.92;;;12.80;;
32946;SDS011;54465;51.230;22.504;2022-09-09T15:51:13;15.65;;;12.32;;
32946;SDS011;54465;51.230;22.504;2022-09-09T15:54:19;16.98;;;12.27;;
32946;SDS011;54465;51.230;22.504;2022-09-09T15:57:24;19.02;;;13.57;;
32946;SDS011;54465;51.230;22.504;2022-09-09T16:00:28;16.27;;;12.90;;
32946;SDS011;54465;51.230;22.504;2022-09-09T16:03:33;22.48;;;16.33;;
32946;SDS011;54465;51.230;22.504;2022-09-09T16:06:36;21.65;;;15.07;;
32946;SDS011;54465;51.230;22.504;2022-09-09T16:09:40;23.15;;;15.68;;
32946;SDS011;54465;51.230;22.504;2022-09-09T16:12:45;27.02;;;16.33;;
32946;SDS011;54465;51.230;22.504;2022-09-09T16:18:56;20.58;;;14.88;;
32946;SDS011;54465;51.230;22.504;2022-09-09T16:22:00;22.88;;;16.40;;
32946;SDS011;54465;51.230;22.504;2022-09-09T16:25:06;22.75;;;16.63;;
32946;SDS011;54465;51.230;22.504;2022-09-09T16:28:10;22.48;;;16.33;;
32946;SDS011;54465;51.230;22.504;2022-09-09T16:31:14;24.52;;;17.75;;
32946;SDS011;54465;51.230;22.504;2022-09-09T16:34:20;24.08;;;17.73;;
32946;SDS011;54465;51.230;22.504;2022-09-09T16:37:22;25.45;;;19.23;;
32946;SDS011;54465;51.230;22.504;2022-09-09T16:40:27;23.50;;;17.38;;
32946;SDS011;54465;51.230;22.504;2022-09-09T16:43:32;23.73;;;17.10;;
32946;SDS011;54465;51.230;22.504;2022-09-09T16:46:35;26.05;;;16.08;;
32946;SDS011;54465;51.230;22.504;2022-09-09T16:49:39;25.02;;;16.45;;
32946;SDS011;54465;51.230;22.504;2022-09-09T16:52:41;20.25;;;15.25;;
32946;SDS011;54465;51.230;22.504;2022-09-09T16:55:45;24.63;;;16.98;;
32946;SDS011;54465;51.230;22.504;2022-09-09T16:58:49;23.40;;;17.25;;
32946;SDS011;54465;51.230;22.504;2022-09-09T17:01:54;24.77;;;17.52;;
32946;SDS011;54465;51.230;22.504;2022-09-09T17:04:57;23.67;;;17.25;;
32946;SDS011;54465;51.230;22.504;2022-09-09T17:08:00;27.27;;;17.08;;
32946;SDS011;54465;51.230;22.504;2022-09-09T17:11:05;25.70;;;17.65;;
32946;SDS011;54465;51.230;22.504;2022-09-09T17:14:16;28.23;;;17.52;;
32946;SDS011;54465;51.230;22.504;2022-09-09T17:17:19;24.90;;;18.50;;
32946;SDS011;54465;51.230;22.504;2022-09-09T17:20:21;28.13;;;18.05;;
32946;SDS011;54465;51.230;22.504;2022-09-09T17:23:23;28.27;;;17.58;;
32946;SDS011;54465;51.230;22.504;2022-09-09T17:26:28;27.10;;;17.52;;
32946;SDS011;54465;51.230;22.504;2022-09-09T17:29:33;26.02;;;16.77;;
32946;SDS011;54465;51.230;22.504;2022-09-09T17:32:36;27.20;;;17.83;;
32946;SDS011;54465;51.230;22.504;2022-09-09T17:35:38;25.05;;;17.25;;
32946;SDS011;54465;51.230;22.504;2022-09-09T17:38:45;24.80;;;17.10;;
32946;SDS011;54465;51.230;22.504;2022-09-09T17:41:51;25.35;;;16.38;;
32946;SDS011;54465;51.230;22.504;2022-09-09T17:44:55;26.45;;;16.75;;
32946;SDS011;54465;51.230;22.504;2022-09-09T17:47:59;23.85;;;17.23;;
32946;SDS011;54465;51.230;22.504;2022-09-09T17:51:03;24.08;;;17.35;;
32946;SDS011;54465;51.230;22.504;2022-09-09T17:54:08;22.83;;;16.25;;
32946;SDS011;54465;51.230;22.504;2022-09-09T17:57:15;24.65;;;17.67;;
32946;SDS011;54465;51.230;22.504;2022-09-09T18:00:19;21.30;;;16.67;;
32946;SDS011;54465;51.230;22.504;2022-09-09T18:03:22;25.35;;;17.50;;
32946;SDS011;54465;51.230;22.504;2022-09-09T18:06:25;28.63;;;18.35;;
32946;SDS011;54465;51.230;22.504;2022-09-09T18:09:29;25.85;;;18.90;;
32946;SDS011;54465;51.230;22.504;2022-09-09T18:12:33;28.60;;;18.50;;
32946;SDS011;54465;51.230;22.504;2022-09-09T18:15:36;25.88;;;17.60;;
32946;SDS011;54465;51.230;22.504;2022-09-09T18:18:38;25.00;;;15.85;;
32946;SDS011;54465;51.230;22.504;2022-09-09T18:21:41;26.17;;;16.63;;
32946;SDS011;54465;51.230;22.504;2022-09-09T18:24:44;25.25;;;16.20;;
32946;SDS011;54465;51.230;22.504;2022-09-09T18:27:51;23.23;;;15.13;;
32946;SDS011;54465;51.230;22.504;2022-09-09T18:30:54;19.48;;;13.48;;
32946;SDS011;54465;51.230;22.504;2022-09-09T18:33:58;21.40;;;13.82;;
32946;SDS011;54465;51.230;22.504;2022-09-09T18:37:02;20.52;;;13.15;;
32946;SDS011;54465;51.230;22.504;2022-09-09T18:40:04;18.90;;;11.93;;
32946;SDS011;54465;51.230;22.504;2022-09-09T18:43:09;19.15;;;12.38;;
32946;SDS011;54465;51.230;22.504;2022-09-09T18:46:12;19.10;;;12.80;;
32946;SDS011;54465;51.230;22.504;2022-09-09T18:49:16;18.45;;;11.15;;